createdAt,value
2018-02-27T00:00:28.174Z,17.70
2018-02-27T00:02:54.398Z,17.70
2018-02-27T00:05:20.630Z,18.20
2018-02-27T00:07:46.901Z,17.90
2018-02-27T00:10:13.114Z,18.10
2018-02-27T00:12:39.362Z,18.40
2018-02-27T00:15:05.639Z,18.50
2018-02-27T00:17:31.906Z,18.10
2018-02-27T00:19:58.123Z,18.10
2018-02-27T00:22:24.349Z,18.30
2018-02-27T00:24:52.877Z,18.10
2018-02-27T00:27:19.162Z,18.10
2018-02-27T00:29:45.462Z,17.90
2018-02-27T00:32:11.699Z,18.10
2018-02-27T00:34:37.931Z,17.30
2018-02-27T00:37:05.211Z,17.50
2018-02-27T00:39:38.231Z,17.60
2018-02-27T00:42:06.610Z,17.90
2018-02-27T00:44:33.673Z,18.30
2018-02-27T00:46:59.878Z,18.20
2018-02-27T00:49:26.111Z,18.20
2018-02-27T00:54:47.714Z,17.90
2018-02-27T00:57:13.869Z,17.80
2018-02-27T00:59:39.963Z,18.00
2018-02-27T01:02:06.053Z,17.70
2018-02-27T01:04:32.197Z,18.90
2018-02-27T01:06:58.990Z,18.30
2018-02-27T01:09:25.027Z,18.30
2018-02-27T01:11:51.066Z,18.20
2018-02-27T01:14:17.118Z,17.90
2018-02-27T01:16:43.922Z,18.40
2018-02-27T01:19:09.971Z,18.20
2018-02-27T01:21:36.019Z,18.70
2018-02-27T01:24:02.073Z,18.80
2018-02-27T01:26:28.144Z,18.80
2018-02-27T01:28:54.241Z,19.10
2018-02-27T01:31:20.290Z,18.90
2018-02-27T01:33:47.117Z,19.40
2018-02-27T01:36:13.371Z,19.10
2018-02-27T01:38:39.445Z,18.80
2018-02-27T01:41:05.511Z,18.80
2018-02-27T01:43:33.621Z,18.90
2018-02-27T01:46:13.339Z,19.20
2018-02-27T01:48:39.505Z,19.40
2018-02-27T01:51:13.777Z,19.50
2018-02-27T01:53:39.853Z,19.90
2018-02-27T01:56:05.910Z,19.00
2018-02-27T01:58:33.502Z,19.10
2018-02-27T02:00:59.587Z,19.60
2018-02-27T02:03:26.126Z,19.00
2018-02-27T02:05:52.180Z,19.60
2018-02-27T02:08:20.266Z,19.50
2018-02-27T02:10:46.519Z,19.60
2018-02-27T02:13:12.582Z,19.50
2018-02-27T02:15:38.692Z,20.40
2018-02-27T02:18:04.786Z,20.50
2018-02-27T02:20:30.868Z,20.20
2018-02-27T02:22:56.897Z,20.30
2018-02-27T02:25:22.962Z,21.40
2018-02-27T02:27:48.990Z,20.20
2018-02-27T02:30:15.078Z,20.60
2018-02-27T02:32:41.574Z,20.20
2018-02-27T02:35:07.632Z,20.50
2018-02-27T02:37:34.429Z,20.50
2018-02-27T02:40:00.499Z,20.90
2018-02-27T02:42:26.553Z,20.60
2018-02-27T02:44:53.162Z,20.90
2018-02-27T02:47:19.202Z,21.30
2018-02-27T02:49:45.365Z,20.80
2018-02-27T02:52:12.189Z,20.90
2018-02-27T02:54:38.225Z,20.80
2018-02-27T02:57:06.082Z,20.90
2018-02-27T02:59:32.166Z,20.90
2018-02-27T03:01:58.214Z,21.00
2018-02-27T03:04:24.258Z,20.50
2018-02-27T03:06:51.059Z,20.90
2018-02-27T03:09:17.129Z,20.80
2018-02-27T03:11:43.190Z,20.80
2018-02-27T03:14:09.982Z,20.80
2018-02-27T03:16:36.038Z,21.10
2018-02-27T03:19:02.106Z,21.50
2018-02-27T03:21:28.890Z,20.80
2018-02-27T03:23:54.930Z,20.80
2018-02-27T03:26:20.982Z,20.80
2018-02-27T03:28:47.055Z,20.80
2018-02-27T03:31:13.870Z,21.50
2018-02-27T03:33:39.943Z,21.50
2018-02-27T03:36:05.986Z,21.20
2018-02-27T03:38:32.060Z,21.30
2018-02-27T03:40:58.115Z,21.50
2018-02-27T03:43:24.162Z,22.20
2018-02-27T03:45:59.098Z,22.20
2018-02-27T03:48:25.183Z,22.30
2018-02-27T03:50:51.997Z,22.10
2018-02-27T03:53:18.056Z,22.00
2018-02-27T03:55:44.914Z,22.40
2018-02-27T03:58:10.968Z,22.00
2018-02-27T04:00:37.762Z,22.50
2018-02-27T04:03:03.838Z,22.30
2018-02-27T04:05:29.875Z,22.70
2018-02-27T04:07:55.909Z,22.60
2018-02-27T04:10:21.945Z,22.50
2018-02-27T04:12:48.046Z,22.70
2018-02-27T04:15:14.169Z,22.50
2018-02-27T04:17:40.365Z,22.90
2018-02-27T04:20:06.402Z,22.80
2018-02-27T04:22:32.466Z,22.80
2018-02-27T04:24:58.510Z,22.80
2018-02-27T04:27:24.556Z,22.50
2018-02-27T04:29:52.385Z,22.80
2018-02-27T04:32:18.470Z,22.80
2018-02-27T04:34:44.562Z,22.90
2018-02-27T04:37:10.597Z,23.30
2018-02-27T04:39:36.647Z,23.20
2018-02-27T04:42:03.465Z,23.90
2018-02-27T04:44:29.537Z,23.40
2018-02-27T04:46:56.332Z,23.80
2018-02-27T04:49:22.393Z,23.80
2018-02-27T04:51:48.448Z,23.70
2018-02-27T04:54:14.555Z,24.50
2018-02-27T04:56:40.613Z,23.90
2018-02-27T04:59:06.657Z,24.30
2018-02-27T05:01:32.720Z,24.20
2018-02-27T05:03:58.770Z,23.90
2018-02-27T05:06:25.557Z,24.20
2018-02-27T05:08:52.333Z,24.00
2018-02-27T05:11:18.379Z,24.00
2018-02-27T05:13:44.454Z,24.40
2018-02-27T05:16:10.498Z,24.20
2018-02-27T05:18:36.550Z,24.10
2018-02-27T05:21:02.679Z,24.40
2018-02-27T05:23:29.541Z,24.90
2018-02-27T05:25:55.586Z,24.80
2018-02-27T05:28:21.647Z,24.30
2018-02-27T05:30:47.741Z,24.80
2018-02-27T05:33:13.853Z,24.80
2018-02-27T05:35:39.906Z,24.80
2018-02-27T05:38:05.937Z,24.80
2018-02-27T05:40:32.073Z,25.60
2018-02-27T05:42:58.114Z,25.10
2018-02-27T05:45:24.165Z,25.10
2018-02-27T05:47:50.202Z,25.10
2018-02-27T05:50:16.281Z,25.50
2018-02-27T05:52:42.329Z,25.70
2018-02-27T05:55:08.387Z,26.00
2018-02-27T05:57:35.157Z,26.20
2018-02-27T06:00:01.430Z,26.00
2018-02-27T06:02:28.249Z,27.00
2018-02-27T06:04:54.304Z,26.90
2018-02-27T06:07:20.338Z,27.20
2018-02-27T06:09:46.399Z,27.40
2018-02-27T06:12:12.452Z,27.10
2018-02-27T06:14:38.492Z,27.10
2018-02-27T06:17:04.569Z,27.80
2018-02-27T06:19:30.633Z,27.50
2018-02-27T06:21:56.682Z,27.60
2018-02-27T06:24:22.717Z,27.70
2018-02-27T06:26:48.798Z,27.90
2018-02-27T06:29:14.872Z,28.00
2018-02-27T06:31:42.634Z,28.50
2018-02-27T06:34:08.653Z,28.00
2018-02-27T06:36:34.700Z,27.60
2018-02-27T06:39:00.749Z,27.90
2018-02-27T06:41:26.781Z,27.70
2018-02-27T06:43:52.853Z,28.50
2018-02-27T06:46:18.933Z,28.20
2018-02-27T06:48:44.998Z,27.40
2018-02-27T06:51:11.050Z,28.50
2018-02-27T06:53:37.089Z,28.30
2018-02-27T06:56:03.127Z,28.50
2018-02-27T06:58:29.166Z,28.70
2018-02-27T07:00:55.205Z,28.90
2018-02-27T07:03:21.251Z,29.10
2018-02-27T07:05:47.361Z,29.30
2018-02-27T07:08:13.463Z,29.30
2018-02-27T07:10:39.518Z,29.40
2018-02-27T07:13:05.558Z,29.40
2018-02-27T07:15:31.591Z,29.20
2018-02-27T07:17:58.377Z,29.50
2018-02-27T07:20:24.482Z,29.50
2018-02-27T07:22:50.521Z,29.30
2018-02-27T07:25:16.553Z,29.50
2018-02-27T07:27:42.592Z,29.50
2018-02-27T07:30:08.647Z,29.50
2018-02-27T07:32:34.691Z,29.50
2018-02-27T07:35:00.734Z,29.30
2018-02-27T07:37:27.012Z,29.50
2018-02-27T07:39:53.041Z,29.60
2018-02-27T07:42:19.070Z,29.70
2018-02-27T07:44:48.599Z,28.90
2018-02-27T07:47:14.696Z,29.10
2018-02-27T07:49:40.801Z,29.10
2018-02-27T07:52:06.850Z,29.20
2018-02-27T07:54:32.887Z,28.90
2018-02-27T07:56:58.960Z,28.30
2018-02-27T07:59:25.016Z,28.60
2018-02-27T08:01:51.825Z,28.30
2018-02-27T08:04:17.861Z,28.20
2018-02-27T08:06:44.018Z,28.20
2018-02-27T08:09:10.115Z,28.10
2018-02-27T08:11:36.194Z,28.20
2018-02-27T08:14:02.294Z,27.90
2018-02-27T08:16:28.349Z,28.30
2018-02-27T08:18:54.382Z,27.90
2018-02-27T08:21:20.418Z,27.20
2018-02-27T08:23:46.479Z,26.10
2018-02-27T08:26:12.568Z,25.20
2018-02-27T08:28:38.670Z,23.80
2018-02-27T08:31:04.659Z,23.30
2018-02-27T08:33:30.900Z,23.40
2018-02-27T08:35:56.958Z,20.60
2018-02-27T08:38:23.050Z,19.70
2018-02-27T08:40:49.130Z,18.70
2018-02-27T08:43:15.275Z,18.40
2018-02-27T08:45:42.094Z,18.70
2018-02-27T08:48:08.159Z,18.70
2018-02-27T08:50:34.190Z,16.90
2018-02-27T08:53:00.232Z,16.40
2018-02-27T08:55:26.283Z,16.40
2018-02-27T08:57:55.584Z,15.90
2018-02-27T09:00:21.612Z,15.80
2018-02-27T09:02:47.642Z,14.80
2018-02-27T09:05:13.716Z,12.70
2018-02-27T09:07:39.762Z,12.90
2018-02-27T09:10:05.829Z,14.10
2018-02-27T09:12:33.377Z,14.40
2018-02-27T09:15:00.158Z,14.40
2018-02-27T09:17:26.206Z,14.30
2018-02-27T09:19:52.257Z,14.10
2018-02-27T09:22:19.906Z,13.50
2018-02-27T09:24:45.969Z,12.90
2018-02-27T09:27:12.088Z,12.90
2018-02-27T09:29:38.209Z,11.70
2018-02-27T09:32:04.227Z,10.80
2018-02-27T09:34:30.254Z,10.40
2018-02-27T09:36:56.293Z,11.50
2018-02-27T09:39:25.277Z,10.60
2018-02-27T09:41:51.350Z,10.70
2018-02-27T09:44:17.405Z,9.70
2018-02-27T09:46:44.248Z,10.00
2018-02-27T09:49:10.427Z,10.00
2018-02-27T09:51:36.477Z,10.10
2018-02-27T09:54:02.497Z,10.20
2018-02-27T09:56:31.538Z,9.40
2018-02-27T09:58:57.583Z,10.40
2018-02-27T10:01:23.622Z,10.40
2018-02-27T10:03:49.701Z,9.20
2018-02-27T10:06:16.542Z,8.90
2018-02-27T10:08:42.571Z,8.90
2018-02-27T10:11:08.602Z,8.90
2018-02-27T10:13:37.303Z,9.10
2018-02-27T10:16:04.051Z,8.50
2018-02-27T10:18:30.107Z,9.00
2018-02-27T10:20:56.135Z,8.90
2018-02-27T10:23:22.161Z,9.30
2018-02-27T10:25:48.193Z,8.50
2018-02-27T10:28:14.241Z,7.70
2018-02-27T10:30:43.356Z,9.20
2018-02-27T10:33:10.131Z,7.80
2018-02-27T10:35:36.161Z,8.10
2018-02-27T10:38:02.270Z,8.50
2018-02-27T10:40:28.316Z,8.90
2018-02-27T10:42:54.350Z,8.80
2018-02-27T10:45:21.127Z,8.20
2018-02-27T10:47:47.141Z,8.30
2018-02-27T10:50:14.717Z,8.20
2018-02-27T10:52:41.497Z,7.50
2018-02-27T10:55:07.528Z,7.50
2018-02-27T10:57:34.294Z,8.40
2018-02-27T11:00:01.074Z,7.10
2018-02-27T11:02:27.152Z,7.10
2018-02-27T11:04:53.925Z,6.30
2018-02-27T11:07:23.374Z,6.20
2018-02-27T11:09:49.665Z,5.90
2018-02-27T11:12:15.698Z,6.90
2018-02-27T11:14:41.760Z,7.40
2018-02-27T11:17:07.807Z,5.60
2018-02-27T11:19:33.850Z,6.50
2018-02-27T11:21:59.910Z,4.90
2018-02-27T11:24:26.746Z,6.70
2018-02-27T11:26:56.034Z,6.50
2018-02-27T11:29:23.531Z,7.10
2018-02-27T11:31:49.616Z,5.50
2018-02-27T11:34:16.390Z,6.10
2018-02-27T11:36:42.492Z,5.90
2018-02-27T11:39:09.322Z,4.60
2018-02-27T11:41:35.370Z,4.50
2018-02-27T11:44:01.414Z,4.60
2018-02-27T11:46:29.896Z,4.80
2018-02-27T11:48:56.842Z,4.70
2018-02-27T11:51:23.820Z,4.40
2018-02-27T11:53:50.103Z,4.30
2018-02-27T11:56:16.368Z,3.10
2018-02-27T11:58:42.710Z,3.80
2018-02-27T12:01:08.958Z,4.80
2018-02-27T12:03:35.944Z,3.80
2018-02-27T12:06:05.150Z,3.70
2018-02-27T12:08:31.416Z,5.00
2018-02-27T12:10:57.633Z,4.20
2018-02-27T12:13:24.000Z,3.00
2018-02-27T12:15:50.978Z,4.60
2018-02-27T12:18:17.193Z,4.50
2018-02-27T12:20:43.452Z,5.20
2018-02-27T12:23:13.926Z,3.20
2018-02-27T12:25:39.998Z,3.20
2018-02-27T12:28:06.263Z,3.40
2018-02-27T12:30:32.481Z,5.30
2018-02-27T12:32:59.451Z,5.20
2018-02-27T12:35:25.661Z,5.10
2018-02-27T12:37:51.910Z,5.70
2018-02-27T12:40:18.139Z,3.90
2018-02-27T12:42:46.967Z,3.00
2018-02-27T12:45:13.455Z,3.10
2018-02-27T12:47:39.785Z,2.80
2018-02-27T12:50:06.020Z,3.10
2018-02-27T12:52:32.321Z,4.40
2018-02-27T12:54:59.357Z,3.30
2018-02-27T12:57:25.833Z,1.90
2018-02-27T12:59:55.386Z,3.50
2018-02-27T13:02:21.794Z,3.50
2018-02-27T13:04:48.042Z,3.00
2018-02-27T13:07:14.658Z,2.50
2018-02-27T13:09:40.926Z,3.10
2018-02-27T13:12:07.152Z,3.40
2018-02-27T13:14:33.413Z,3.90
2018-02-27T13:17:04.367Z,3.00
2018-02-27T13:19:30.906Z,4.00
2018-02-27T13:21:57.903Z,2.70
2018-02-27T13:24:24.170Z,2.70
2018-02-27T13:26:51.483Z,2.60
2018-02-27T13:29:17.764Z,3.40
2018-02-27T13:31:44.056Z,4.00
2018-02-27T13:34:15.137Z,3.60
2018-02-27T13:36:41.395Z,4.30
2018-02-27T13:39:07.666Z,3.60
2018-02-27T13:41:34.186Z,3.30
2018-02-27T13:44:00.662Z,3.10
2018-02-27T13:46:26.984Z,3.30
2018-02-27T13:48:53.259Z,3.40
2018-02-27T13:51:21.706Z,3.20
2018-02-27T13:53:47.934Z,3.60
2018-02-27T13:56:14.184Z,3.30
2018-02-27T13:58:40.490Z,4.40
2018-02-27T14:01:06.722Z,4.30
2018-02-27T14:03:33.239Z,3.10
2018-02-27T14:05:59.457Z,4.10
2018-02-27T14:08:25.733Z,3.10
2018-02-27T14:10:55.334Z,2.80
2018-02-27T14:13:21.805Z,3.00
2018-02-27T14:15:48.097Z,2.10
2018-02-27T14:18:14.435Z,3.20
2018-02-27T14:20:40.974Z,4.00
2018-02-27T14:23:07.494Z,2.40
2018-02-27T14:25:33.953Z,2.90
2018-02-27T14:28:00.232Z,2.30
2018-02-27T14:30:31.755Z,2.70
2018-02-27T14:32:58.691Z,3.10
2018-02-27T14:35:25.576Z,4.20
2018-02-27T14:37:52.014Z,4.00
2018-02-27T14:40:18.272Z,3.20
2018-02-27T14:42:44.378Z,3.60
2018-02-27T14:45:10.851Z,4.40
2018-02-27T14:47:40.493Z,3.70
2018-02-27T14:50:07.080Z,3.20
2018-02-27T14:52:33.530Z,3.90
2018-02-27T14:54:59.852Z,2.40
2018-02-27T14:57:26.434Z,2.20
2018-02-27T14:59:53.293Z,2.50
2018-02-27T15:02:19.326Z,2.40
2018-02-27T15:04:48.638Z,1.10
2018-02-27T15:07:14.842Z,1.40
2018-02-27T15:09:41.101Z,1.00
2018-02-27T15:12:07.667Z,1.30
2018-02-27T15:14:34.664Z,2.90
2018-02-27T15:17:01.636Z,3.00
2018-02-27T15:19:27.911Z,2.90
2018-02-27T15:21:54.169Z,2.10
2018-02-27T15:24:20.388Z,2.40
2018-02-27T15:26:46.656Z,2.00
2018-02-27T15:29:20.135Z,2.30
2018-02-27T15:31:46.218Z,2.60
2018-02-27T15:34:13.086Z,2.10
2018-02-27T15:36:40.159Z,2.00
2018-02-27T15:39:06.273Z,3.10
2018-02-27T15:41:33.831Z,3.20
2018-02-27T15:44:01.407Z,3.30
2018-02-27T15:46:28.601Z,2.80
2018-02-27T15:48:54.910Z,3.20
2018-02-27T15:51:21.108Z,3.30
2018-02-27T15:53:48.202Z,4.50
2018-02-27T15:56:14.230Z,4.60
2018-02-27T15:58:40.506Z,4.80
2018-02-27T16:01:06.901Z,4.60
2018-02-27T16:03:33.867Z,4.30
2018-02-27T16:06:04.036Z,4.20
2018-02-27T16:08:30.327Z,4.60
2018-02-27T16:10:56.498Z,3.50
2018-02-27T16:13:23.318Z,3.60
2018-02-27T16:15:49.985Z,3.80
2018-02-27T16:18:16.197Z,3.10
2018-02-27T16:20:43.318Z,1.80
2018-02-27T16:23:10.366Z,3.00
2018-02-27T16:25:37.359Z,2.60
2018-02-27T16:28:03.497Z,2.50
2018-02-27T16:30:29.623Z,2.60
2018-02-27T16:32:55.721Z,2.40
2018-02-27T16:35:21.975Z,2.50
2018-02-27T16:37:50.076Z,3.00
2018-02-27T16:40:16.899Z,3.60
2018-02-27T16:42:44.067Z,3.30
2018-02-27T16:45:10.421Z,3.40
2018-02-27T16:47:36.638Z,4.10
2018-02-27T16:50:02.790Z,4.10
2018-02-27T16:52:28.945Z,4.20
2018-02-27T16:54:55.874Z,4.10
2018-02-27T16:57:21.962Z,4.10
2018-02-27T16:59:48.754Z,4.70
2018-02-27T17:02:16.720Z,4.10
2018-02-27T17:04:51.254Z,4.10
2018-02-27T17:07:19.179Z,3.90
2018-02-27T17:09:45.341Z,4.80
2018-02-27T17:12:11.634Z,3.90
2018-02-27T17:14:37.732Z,3.80
2018-02-27T17:17:03.802Z,4.20
2018-02-27T17:19:31.269Z,3.90
2018-02-27T17:21:57.609Z,4.70
2018-02-27T17:24:24.482Z,3.90
2018-02-27T17:26:50.865Z,3.90
2018-02-27T17:29:16.998Z,4.10
2018-02-27T17:31:43.081Z,4.50
2018-02-27T17:34:13.841Z,5.20
2018-02-27T17:36:41.092Z,5.70
2018-02-27T17:39:07.338Z,5.40
2018-02-27T17:41:33.412Z,5.10
2018-02-27T17:43:59.511Z,5.70
2018-02-27T17:46:28.550Z,5.50
2018-02-27T17:48:54.647Z,5.50
2018-02-27T17:51:21.446Z,6.10
2018-02-27T17:53:47.499Z,6.10
2018-02-27T17:56:13.555Z,6.50
2018-02-27T17:58:40.604Z,6.80
2018-02-27T18:01:06.666Z,6.80
2018-02-27T18:03:33.537Z,7.30
2018-02-27T18:05:59.589Z,7.20
2018-02-27T18:08:25.654Z,7.10
2018-02-27T18:10:52.042Z,7.60
2018-02-27T18:13:18.848Z,7.70
2018-02-27T18:15:44.902Z,7.70
2018-02-27T18:18:10.950Z,7.90
2018-02-27T18:20:37.790Z,8.20
2018-02-27T18:23:03.830Z,8.10
2018-02-27T18:25:33.619Z,8.60
2018-02-27T18:27:59.658Z,8.50
2018-02-27T18:30:25.710Z,9.00
2018-02-27T18:32:51.810Z,8.50
2018-02-27T18:35:17.881Z,8.60
2018-02-27T18:37:43.927Z,8.90
2018-02-27T18:40:10.070Z,9.10
2018-02-27T18:42:36.174Z,9.30
2018-02-27T18:45:02.222Z,9.70
2018-02-27T18:47:28.275Z,9.50
2018-02-27T18:49:54.327Z,9.60
2018-02-27T18:52:25.129Z,10.60
2018-02-27T18:54:51.200Z,9.80
2018-02-27T18:57:17.262Z,9.50
2018-02-27T18:59:43.369Z,9.00
2018-02-27T19:02:10.621Z,9.30
2018-02-27T19:04:37.503Z,9.10
2018-02-27T19:07:03.598Z,9.00
2018-02-27T19:09:29.631Z,9.20
2018-02-27T19:11:55.879Z,9.60
2018-02-27T19:14:22.119Z,9.60
2018-02-27T19:16:48.934Z,10.70
2018-02-27T19:19:15.242Z,10.70
2018-02-27T19:21:42.381Z,11.30
2018-02-27T19:24:08.482Z,11.40
2018-02-27T19:26:34.520Z,11.70
2018-02-27T19:29:01.350Z,12.50
2018-02-27T19:31:27.418Z,12.40
2018-02-27T19:33:53.477Z,12.70
2018-02-27T19:36:19.513Z,12.90
2018-02-27T19:38:45.592Z,13.10
2018-02-27T19:41:11.658Z,13.70
2018-02-27T19:43:40.779Z,13.50
2018-02-27T19:46:07.561Z,13.50
2018-02-27T19:48:33.682Z,13.40
2018-02-27T19:51:00.716Z,14.10
2018-02-27T19:53:27.919Z,14.40
2018-02-27T19:55:53.954Z,14.50
2018-02-27T19:58:20.019Z,14.40
2018-02-27T20:00:46.588Z,14.60
2018-02-27T20:03:12.666Z,14.80
2018-02-27T20:05:39.574Z,15.70
2018-02-27T20:08:07.720Z,16.30
2018-02-27T20:10:33.766Z,18.00
2018-02-27T20:12:59.852Z,18.00
2018-02-27T20:15:26.673Z,19.40
2018-02-27T20:17:58.958Z,19.40
2018-02-27T20:20:25.950Z,20.40
2018-02-27T20:23:02.333Z,20.00
2018-02-27T20:25:29.352Z,19.70
2018-02-27T20:27:55.792Z,20.40
2018-02-27T20:30:22.080Z,20.40
2018-02-27T20:32:48.346Z,20.20
2018-02-27T20:35:14.914Z,20.70
2018-02-27T20:37:41.210Z,20.60
2018-02-27T20:40:07.502Z,21.20
2018-02-27T20:42:35.398Z,20.90
2018-02-27T20:45:01.692Z,21.60
2018-02-27T20:47:28.730Z,21.90
2018-02-27T20:49:55.019Z,21.80
2018-02-27T20:52:21.276Z,21.70
2018-02-27T20:54:48.297Z,22.60
2018-02-27T20:57:14.573Z,22.60
2018-02-27T20:59:41.028Z,22.60
2018-02-27T21:02:07.325Z,21.90
2018-02-27T21:04:33.587Z,22.30
2018-02-27T21:06:59.954Z,21.30
2018-02-27T21:09:26.219Z,21.80
2018-02-27T21:11:52.448Z,21.60
2018-02-27T21:14:18.819Z,22.30
2018-02-27T21:16:45.905Z,22.60
2018-02-27T21:19:12.158Z,22.50
2018-02-27T21:21:38.453Z,22.50
2018-02-27T21:24:04.703Z,22.60
2018-02-27T21:26:31.734Z,22.50
2018-02-27T21:28:58.823Z,22.50
2018-02-27T21:31:25.094Z,22.10
2018-02-27T21:33:52.063Z,22.60
2018-02-27T21:36:18.374Z,22.70
2018-02-27T21:38:45.650Z,21.80
2018-02-27T21:41:11.901Z,22.00
2018-02-27T21:43:38.135Z,22.40
2018-02-27T21:46:04.414Z,22.50
2018-02-27T21:48:30.666Z,23.20
2018-02-27T21:50:56.937Z,22.80
2018-02-27T21:53:23.934Z,24.20
2018-02-27T21:55:50.203Z,24.30
2018-02-27T21:58:16.477Z,23.60
2018-02-27T22:00:42.722Z,24.30
2018-02-27T22:03:08.966Z,24.80
2018-02-27T22:05:35.222Z,24.40
2018-02-27T22:08:01.562Z,24.00
2018-02-27T22:10:27.935Z,25.40
2018-02-27T22:12:54.190Z,25.70
2018-02-27T22:15:20.408Z,25.80
2018-02-27T22:17:46.675Z,27.20
2018-02-27T22:20:12.921Z,27.50
2018-02-27T22:22:39.152Z,27.20
2018-02-27T22:25:08.382Z,27.20
2018-02-27T22:27:34.562Z,27.30
2018-02-27T22:30:00.835Z,27.80
2018-02-27T22:32:28.126Z,27.50
2018-02-27T22:34:54.343Z,28.30
2018-02-27T22:37:20.581Z,27.40
2018-02-27T22:39:46.811Z,28.40
2018-02-27T22:42:13.063Z,28.40
2018-02-27T22:44:39.302Z,28.40
2018-02-27T22:47:05.516Z,28.90
2018-02-27T22:49:31.810Z,29.00
2018-02-27T22:51:58.071Z,29.60
2018-02-27T22:54:24.314Z,29.30
2018-02-27T22:56:50.533Z,30.00
2018-02-27T22:59:16.802Z,32.20
2018-02-27T23:01:43.030Z,32.60
2018-02-27T23:04:09.311Z,32.60
2018-02-27T23:06:46.343Z,33.50
2018-02-27T23:09:12.635Z,32.30
2018-02-27T23:11:38.885Z,34.60
2018-02-27T23:14:05.077Z,36.10
2018-02-27T23:16:31.402Z,36.70
2018-02-27T23:18:57.661Z,37.90
2018-02-27T23:21:23.898Z,39.70
2018-02-27T23:23:50.943Z,38.10
2018-02-27T23:26:17.597Z,38.00
2018-02-27T23:28:46.126Z,38.30
2018-02-27T23:31:12.558Z,37.90
2018-02-27T23:33:39.022Z,37.40
2018-02-27T23:36:26.933Z,37.20
2018-02-27T23:38:52.985Z,37.40
2018-02-27T23:41:19.030Z,38.00
2018-02-27T23:43:47.153Z,37.50
2018-02-27T23:46:28.898Z,37.60
2018-02-27T23:48:54.949Z,38.00
2018-02-27T23:51:20.994Z,37.50
2018-02-27T23:53:47.039Z,36.70
2018-02-27T23:56:16.543Z,38.20
2018-02-27T23:58:42.570Z,37.90
